Time,TemperatureF,DewpointF,PressureIn,WindDirection,WindDirectionDegrees,WindSpeedMPH,WindSpeedGustMPH,Humidity,HourlyPrecipIn,Conditions,Clouds,dailyrainin,SolarRadiationWatts/m^2,SoftwareType,DateUTC
2013-11-25 00:00:00,20.1,14.1,30.56,SW,217,0.0,0.0,77,0.00,,,0.00,0,HR-IXPWINDi_r2_v1.2.,2013-11-25 05:00:00,
2013-11-25 00:01:00,20.1,14.1,30.56,SW,217,0.0,0.0,77,0.00,,,0.00,0,HR-IXPWINDi_r2_v1.2.,2013-11-25 05:01:00,
2013-11-25 00:06:00,19.6,13.3,30.57,SW,217,0.0,0.0,76,0.00,,,0.00,0,HR-IXPWINDi_r2_v1.2.,2013-11-25 05:06:00,
2013-11-25 00:11:00,19.4,13.1,30.56,SW,217,0.0,0.0,76,0.00,,,0.00,0,HR-IXPWINDi_r2_v1.2.,2013-11-25 05:11:00,
2013-11-25 00:17:00,19.3,13.3,30.57,SW,217,0.0,1.0,77,0.00,,,0.00,0,HR-IXPWINDi_r2_v1.2.,2013-11-25 05:17:00,
2013-11-25 00:22:00,19.5,13.8,30.57,SW,217,0.0,1.0,78,0.00,,,0.00,0,HR-IXPWINDi_r2_v1.2.,2013-11-25 05:22:00,
2013-11-25 00:27:00,19.8,13.8,30.57,WSW,237,0.0,3.0,77,0.00,,,0.00,0,HR-IXPWINDi_r2_v1.2.,2013-11-25 05:27:00,
2013-11-25 00:32:00,19.8,13.5,30.56,WSW,237,0.0,3.0,76,0.00,,,0.00,0,HR-IXPWINDi_r2_v1.2.,2013-11-25 05:32:00,
2013-11-25 00:37:00,19.4,13.1,30.56,WSW,237,1.0,2.0,76,0.00,,,0.00,0,HR-IXPWINDi_r2_v1.2.,2013-11-25 05:37:00,
2013-11-25 00:42:00,18.9,13.2,30.56,WSW,237,0.0,2.0,78,0.00,,,0.00,0,HR-IXPWINDi_r2_v1.2.,2013-11-25 05:42:00,
2013-11-25 00:47:00,18.7,13.0,30.56,WSW,237,0.0,2.0,78,0.00,,,0.00,0,HR-IXPWINDi_r2_v1.2.,2013-11-25 05:47:00,
2013-11-25 00:52:00,18.6,12.9,30.55,WSW,237,0.0,2.0,78,0.00,,,0.00,0,HR-IXPWINDi_r2_v1.2.,2013-11-25 05:52:00,
2013-11-25 00:57:00,18.6,13.2,30.55,WSW,237,0.0,2.0,79,0.00,,,0.00,0,HR-IXPWINDi_r2_v1.2.,2013-11-25 05:57:00,
2013-11-25 01:03:00,18.7,13.0,30.55,WSW,237,0.0,0.0,78,0.00,,,0.00,0,HR-IXPWINDi_r2_v1.2.,2013-11-25 06:03:00,
2013-11-25 01:08:00,18.8,13.4,30.55,WSW,237,0.0,0.0,79,0.00,,,0.00,0,HR-IXPWINDi_r2_v1.2.,2013-11-25 06:08:00,
2013-11-25 01:13:00,18.9,13.5,30.55,WSW,252,0.0,3.0,79,0.00,,,0.00,0,HR-IXPWINDi_r2_v1.2.,2013-11-25 06:13:00,
2013-11-25 01:19:00,19.0,13.6,30.55,WSW,252,0.0,3.0,79,0.00,,,0.00,0,HR-IXPWINDi_r2_v1.2.,2013-11-25 06:19:00,
2013-11-25 01:24:00,19.0,13.6,30.55,WSW,252,0.0,2.0,79,0.00,,,0.00,0,HR-IXPWINDi_r2_v1.2.,2013-11-25 06:24:00,
2013-11-25 01:30:00,18.7,13.3,30.55,WSW,252,0.0,2.0,79,0.00,,,0.00,0,HR-IXPWINDi_r2_v1.2.,2013-11-25 06:30:00,
2013-11-25 01:35:00,18.5,13.4,30.55,WSW,252,2.0,3.0,80,0.00,,,0.00,0,HR-IXPWINDi_r2_v1.2.,2013-11-25 06:35:00,
2013-11-25 01:40:00,18.6,13.5,30.56,WSW,252,0.0,3.0,80,0.00,,,0.00,0,HR-IXPWINDi_r2_v1.2.,2013-11-25 06:40:00,
2013-11-25 01:45:00,18.5,13.4,30.55,WSW,252,1.0,3.0,80,0.00,,,0.00,0,HR-IXPWINDi_r2_v1.2.,2013-11-25 06:45:00,
2013-11-25 01:51:00,18.7,13.6,30.55,South,190,3.0,3.0,80,0.00,,,0.00,0,HR-IXPWINDi_r2_v1.2.,2013-11-25 06:51:00,
2013-11-25 01:56:00,18.1,13.0,30.55,SSE,155,0.0,4.0,80,0.00,,,0.00,0,HR-IXPWINDi_r2_v1.2.,2013-11-25 06:56:00,
2013-11-25 02:01:00,18.1,13.3,30.55,SSE,155,0.0,4.0,81,0.00,,,0.00,0,HR-IXPWINDi_r2_v1.2.,2013-11-25 07:01:00,
2013-11-25 02:07:00,18.2,13.4,30.56,SSE,155,0.0,0.0,81,0.00,,,0.00,0,HR-IXPWINDi_r2_v1.2.,2013-11-25 07:07:00,
2013-11-25 02:12:00,18.5,13.7,30.55,SSE,155,0.0,4.0,81,0.00,,,0.00,0,HR-IXPWINDi_r2_v1.2.,2013-11-25 07:12:00,
2013-11-25 02:17:00,18.4,13.6,30.56,SSE,155,0.0,4.0,81,0.00,,,0.00,0,HR-IXPWINDi_r2_v1.2.,2013-11-25 07:17:00,
2013-11-25 02:23:00,18.0,13.2,30.56,SSE,155,0.0,1.0,81,0.00,,,0.00,0,HR-IXPWINDi_r2_v1.2.,2013-11-25 07:23:00,
2013-11-25 02:28:00,18.2,13.7,30.55,SSE,155,0.0,0.0,82,0.00,,,0.00,0,HR-IXPWINDi_r2_v1.2.,2013-11-25 07:28:00,
2013-11-25 02:33:00,18.3,13.5,30.56,SSE,155,0.0,0.0,81,0.00,,,0.00,0,HR-IXPWINDi_r2_v1.2.,2013-11-25 07:33:00,
2013-11-25 02:38:00,18.1,13.3,30.56,SSE,155,4.0,4.0,81,0.00,,,0.00,0,HR-IXPWINDi_r2_v1.2.,2013-11-25 07:38:00,
2013-11-25 02:43:00,18.0,13.2,30.56,SSE,155,0.0,4.0,81,0.00,,,0.00,0,HR-IXPWINDi_r2_v1.2.,2013-11-25 07:43:00,
2013-11-25 02:48:00,17.7,12.6,30.56,SSE,155,0.0,4.0,80,0.00,,,0.00,0,HR-IXPWINDi_r2_v1.2.,2013-11-25 07:48:00,
2013-11-25 02:54:00,17.5,13.0,30.56,SSE,155,0.0,2.0,82,0.00,,,0.00,0,HR-IXPWINDi_r2_v1.2.,2013-11-25 07:54:00,
2013-11-25 02:59:00,17.3,13.1,30.56,SSE,155,1.0,2.0,83,0.00,,,0.00,0,HR-IXPWINDi_r2_v1.2.,2013-11-25 07:59:00,
2013-11-25 03:04:00,17.2,13.0,30.56,SSE,155,0.0,1.0,83,0.00,,,0.00,0,HR-IXPWINDi_r2_v1.2.,2013-11-25 08:04:00,
2013-11-25 03:09:00,17.6,13.6,30.55,SSE,155,0.0,1.0,84,0.00,,,0.00,0,HR-IXPWINDi_r2_v1.2.,2013-11-25 08:09:00,
2013-11-25 03:14:00,17.6,13.4,30.55,SSE,155,0.0,2.0,83,0.00,,,0.00,0,HR-IXPWINDi_r2_v1.2.,2013-11-25 08:14:00,
2013-11-25 03:20:00,17.7,13.5,30.55,SSE,155,0.0,2.0,83,0.00,,,0.00,0,HR-IXPWINDi_r2_v1.2.,2013-11-25 08:20:00,
2013-11-25 03:25:00,18.1,13.8,30.55,SSE,155,0.0,1.0,83,0.00,,,0.00,0,HR-IXPWINDi_r2_v1.2.,2013-11-25 08:25:00,
2013-11-25 03:30:00,18.2,13.7,30.55,SSE,155,0.0,2.0,82,0.00,,,0.00,0,HR-IXPWINDi_r2_v1.2.,2013-11-25 08:30:00,
2013-11-25 03:35:00,18.1,13.6,30.55,SSE,154,0.0,4.0,82,0.00,,,0.00,0,HR-IXPWINDi_r2_v1.2.,2013-11-25 08:35:00,
2013-11-25 03:41:00,18.1,13.3,30.55,SSE,154,0.0,4.0,81,0.00,,,0.00,0,HR-IXPWINDi_r2_v1.2.,2013-11-25 08:41:00,
2013-11-25 03:46:00,18.1,13.6,30.55,SSE,154,0.0,2.0,82,0.00,,,0.00,0,HR-IXPWINDi_r2_v1.2.,2013-11-25 08:46:00,
2013-11-25 03:51:00,18.4,13.9,30.55,SSE,154,0.0,1.0,82,0.00,,,0.00,0,HR-IXPWINDi_r2_v1.2.,2013-11-25 08:51:00,
2013-11-25 03:56:00,18.4,13.9,30.56,SSE,154,0.0,1.0,82,0.00,,,0.00,0,HR-IXPWINDi_r2_v1.2.,2013-11-25 08:56:00,
2013-11-25 04:01:00,18.5,14.0,30.56,SSE,154,0.0,2.0,82,0.00,,,0.00,0,HR-IXPWINDi_r2_v1.2.,2013-11-25 09:01:00,
2013-11-25 04:07:00,18.8,14.3,30.55,SSE,154,0.0,2.0,82,0.00,,,0.00,0,HR-IXPWINDi_r2_v1.2.,2013-11-25 09:07:00,
2013-11-25 04:12:00,18.9,14.1,30.55,SSE,154,0.0,2.0,81,0.00,,,0.00,0,HR-IXPWINDi_r2_v1.2.,2013-11-25 09:12:00,
2013-11-25 04:17:00,19.0,14.4,30.55,SSE,154,2.0,2.0,82,0.00,,,0.00,0,HR-IXPWINDi_r2_v1.2.,2013-11-25 09:17:00,
2013-11-25 04:22:00,18.9,14.1,30.55,SSE,154,0.0,2.0,81,0.00,,,0.00,0,HR-IXPWINDi_r2_v1.2.,2013-11-25 09:22:00,
2013-11-25 04:27:00,18.9,14.4,30.55,SSE,154,0.0,2.0,82,0.00,,,0.00,0,HR-IXPWINDi_r2_v1.2.,2013-11-25 09:27:00,
2013-11-25 04:32:00,19.1,14.3,30.55,SSE,154,0.0,2.0,81,0.00,,,0.00,0,HR-IXPWINDi_r2_v1.2.,2013-11-25 09:32:00,
2013-11-25 04:38:00,19.0,14.2,30.55,NW,306,3.0,4.0,81,0.00,,,0.00,0,HR-IXPWINDi_r2_v1.2.,2013-11-25 09:38:00,
2013-11-25 04:43:00,19.2,14.6,30.55,SE,128,2.0,4.0,82,0.00,,,0.00,0,HR-IXPWINDi_r2_v1.2.,2013-11-25 09:43:00,
2013-11-25 04:48:00,19.0,14.2,30.56,NW,315,3.0,4.0,81,0.00,,,0.00,0,HR-IXPWINDi_r2_v1.2.,2013-11-25 09:48:00,
2013-11-25 04:53:00,19.1,14.5,30.56,South,190,3.0,4.0,82,0.00,,,0.00,0,HR-IXPWINDi_r2_v1.2.,2013-11-25 09:53:00,
2013-11-25 04:59:00,19.1,14.3,30.55,SE,132,0.0,5.0,81,0.00,,,0.00,0,HR-IXPWINDi_r2_v1.2.,2013-11-25 09:59:00,
2013-11-25 05:04:00,19.3,14.7,30.55,North,355,3.0,5.0,82,0.00,,,0.00,0,HR-IXPWINDi_r2_v1.2.,2013-11-25 10:04:00,
2013-11-25 05:09:00,19.4,14.8,30.56,SE,129,0.0,4.0,82,0.00,,,0.00,0,HR-IXPWINDi_r2_v1.2.,2013-11-25 10:09:00,
2013-11-25 05:14:00,19.5,14.9,30.56,SE,129,0.0,4.0,82,0.00,,,0.00,0,HR-IXPWINDi_r2_v1.2.,2013-11-25 10:14:00,
2013-11-25 05:19:00,19.7,14.8,30.56,NNE,17,2.0,5.0,81,0.00,,,0.00,0,HR-IXPWINDi_r2_v1.2.,2013-11-25 10:19:00,
2013-11-25 05:25:00,20.2,15.1,30.56,NW,317,2.0,5.0,80,0.00,,,0.00,0,HR-IXPWINDi_r2_v1.2.,2013-11-25 10:25:00,
2013-11-25 05:31:00,20.8,15.3,30.56,ESE,111,0.0,5.0,79,0.00,,,0.00,0,HR-IXPWINDi_r2_v1.2.,2013-11-25 10:31:00,
2013-11-25 05:37:00,21.6,14.9,30.56,North,351,4.0,6.0,75,0.00,,,0.00,0,HR-IXPWINDi_r2_v1.2.,2013-11-25 10:37:00,
2013-11-25 05:42:00,22.9,14.0,30.55,NE,41,4.0,6.0,68,0.00,,,0.00,0,HR-IXPWINDi_r2_v1.2.,2013-11-25 10:42:00,
2013-11-25 05:48:00,23.5,13.8,30.55,NNW,341,0.0,6.0,66,0.00,,,0.00,0,HR-IXPWINDi_r2_v1.2.,2013-11-25 10:48:00,
2013-11-25 05:53:00,24.0,11.4,30.55,North,355,2.0,6.0,58,0.00,,,0.00,0,HR-IXPWINDi_r2_v1.2.,2013-11-25 10:53:00,
2013-11-25 05:58:00,23.8,14.1,30.55,North,350,2.0,5.0,66,0.00,,,0.00,0,HR-IXPWINDi_r2_v1.2.,2013-11-25 10:58:00,
2013-11-25 06:03:00,24.1,11.9,30.55,NNE,22,0.0,5.0,59,0.00,,,0.00,0,HR-IXPWINDi_r2_v1.2.,2013-11-25 11:03:00,
2013-11-25 06:09:00,23.7,13.3,30.55,South,182,0.0,5.0,64,0.00,,,0.00,0,HR-IXPWINDi_r2_v1.2.,2013-11-25 11:09:00,
2013-11-25 06:14:00,22.9,12.9,30.55,South,180,1.0,5.0,65,0.00,,,0.00,0,HR-IXPWINDi_r2_v1.2.,2013-11-25 11:14:00,
2013-11-25 06:20:00,22.4,13.5,30.55,South,180,0.0,5.0,68,0.00,,,0.00,0,HR-IXPWINDi_r2_v1.2.,2013-11-25 11:20:00,
2013-11-25 06:26:00,22.4,13.8,30.55,South,180,0.0,1.0,69,0.00,,,0.00,0,HR-IXPWINDi_r2_v1.2.,2013-11-25 11:26:00,
2013-11-25 06:31:00,22.4,14.5,30.55,South,180,0.0,0.0,71,0.00,,,0.00,0,HR-IXPWINDi_r2_v1.2.,2013-11-25 11:31:00,
2013-11-25 06:37:00,22.4,14.1,30.55,South,180,0.0,2.0,70,0.00,,,0.00,0,HR-IXPWINDi_r2_v1.2.,2013-11-25 11:37:00,
2013-11-25 06:43:00,22.2,14.3,30.55,East,94,1.0,2.0,71,0.00,,,0.00,0,HR-IXPWINDi_r2_v1.2.,2013-11-25 11:43:00,
2013-11-25 06:48:00,22.0,14.1,30.55,East,82,0.0,2.0,71,0.00,,,0.00,0,HR-IXPWINDi_r2_v1.2.,2013-11-25 11:48:00,
2013-11-25 06:53:00,22.3,14.4,30.55,ESE,111,1.0,5.0,71,0.00,,,0.00,0,HR-IXPWINDi_r2_v1.2.,2013-11-25 11:53:00,
2013-11-25 06:58:00,22.6,14.3,30.55,ESE,111,0.0,5.0,70,0.00,,,0.00,0,HR-IXPWINDi_r2_v1.2.,2013-11-25 11:58:00,
2013-11-25 07:05:00,22.9,14.0,30.55,SSE,150,0.0,8.0,68,0.00,,,0.00,0,HR-IXPWINDi_r2_v1.2.,2013-11-25 12:05:00,
2013-11-25 07:11:00,22.5,14.6,30.55,WSW,255,2.0,8.0,71,0.00,,,0.00,0,HR-IXPWINDi_r2_v1.2.,2013-11-25 12:11:00,
2013-11-25 07:16:00,22.6,14.0,30.55,West,262,0.0,4.0,69,0.00,,,0.00,0,HR-IXPWINDi_r2_v1.2.,2013-11-25 12:16:00,
2013-11-25 07:21:00,22.6,14.3,30.55,West,262,2.0,4.0,70,0.00,,,0.00,5,HR-IXPWINDi_r2_v1.2.,2013-11-25 12:21:00,
2013-11-25 07:26:00,22.3,13.7,30.55,West,262,0.0,2.0,69,0.00,,,0.00,11,HR-IXPWINDi_r2_v1.2.,2013-11-25 12:26:00,
2013-11-25 07:31:00,22.2,13.6,30.56,West,262,0.0,2.0,69,0.00,,,0.00,18,HR-IXPWINDi_r2_v1.2.,2013-11-25 12:31:00,
2013-11-25 07:37:00,22.6,14.3,30.56,West,262,0.0,0.0,70,0.00,,,0.00,30,HR-IXPWINDi_r2_v1.2.,2013-11-25 12:37:00,
2013-11-25 07:43:00,22.9,14.6,30.55,West,262,2.0,2.0,70,0.00,,,0.00,42,HR-IXPWINDi_r2_v1.2.,2013-11-25 12:43:00,
2013-11-25 07:48:00,23.0,14.7,30.56,West,262,0.0,2.0,70,0.00,,,0.00,53,HR-IXPWINDi_r2_v1.2.,2013-11-25 12:48:00,
2013-11-25 07:53:00,23.2,15.5,30.56,West,262,0.0,2.0,72,0.00,,,0.00,58,HR-IXPWINDi_r2_v1.2.,2013-11-25 12:53:00,
2013-11-25 07:58:00,23.6,15.3,30.56,West,262,0.0,0.0,70,0.00,,,0.00,69,HR-IXPWINDi_r2_v1.2.,2013-11-25 12:58:00,
2013-11-25 08:03:00,24.1,15.4,30.56,West,262,0.0,0.0,69,0.00,,,0.00,86,HR-IXPWINDi_r2_v1.2.,2013-11-25 13:03:00,
2013-11-25 08:08:00,24.6,16.6,30.56,West,262,0.0,0.0,71,0.00,,,0.00,114,HR-IXPWINDi_r2_v1.2.,2013-11-25 13:08:00,
2013-11-25 08:13:00,25.1,16.4,30.56,West,261,0.0,1.0,69,0.00,,,0.00,139,HR-IXPWINDi_r2_v1.2.,2013-11-25 13:13:00,
2013-11-25 08:18:00,25.7,16.3,30.56,West,261,0.0,1.0,67,0.00,,,0.00,148,HR-IXPWINDi_r2_v1.2.,2013-11-25 13:18:00,
2013-11-25 08:24:00,26.1,15.3,30.56,West,260,0.0,2.0,63,0.00,,,0.00,109,HR-IXPWINDi_r2_v1.2.,2013-11-25 13:24:00,
2013-11-25 08:29:00,26.6,15.0,30.56,West,259,0.0,2.0,61,0.00,,,0.00,65,HR-IXPWINDi_r2_v1.2.,2013-11-25 13:29:00,
2013-11-25 08:34:00,27.0,15.0,30.56,West,259,0.0,2.0,60,0.00,,,0.00,54,HR-IXPWINDi_r2_v1.2.,2013-11-25 13:34:00,
2013-11-25 08:39:00,27.2,14.4,30.56,West,259,0.0,0.0,58,0.00,,,0.00,42,HR-IXPWINDi_r2_v1.2.,2013-11-25 13:39:00,
2013-11-25 08:44:00,27.5,14.7,30.56,West,259,1.0,1.0,58,0.00,,,0.00,46,HR-IXPWINDi_r2_v1.2.,2013-11-25 13:44:00,
2013-11-25 08:50:00,27.5,15.1,30.56,West,259,0.0,2.0,59,0.00,,,0.00,51,HR-IXPWINDi_r2_v1.2.,2013-11-25 13:50:00,
2013-11-25 08:55:00,27.5,14.7,30.57,West,259,0.0,2.0,58,0.00,,,0.00,54,HR-IXPWINDi_r2_v1.2.,2013-11-25 13:55:00,
2013-11-25 09:01:00,27.8,15.4,30.57,West,259,0.0,2.0,59,0.00,,,0.00,60,HR-IXPWINDi_r2_v1.2.,2013-11-25 14:01:00,
2013-11-25 09:06:00,27.9,14.7,30.56,SW,234,1.0,2.0,57,0.00,,,0.00,58,HR-IXPWINDi_r2_v1.2.,2013-11-25 14:06:00,
2013-11-25 09:11:00,28.0,13.1,30.56,SW,234,0.0,2.0,53,0.00,,,0.00,70,HR-IXPWINDi_r2_v1.2.,2013-11-25 14:11:00,
2013-11-25 09:17:00,28.3,12.5,30.57,SW,234,0.0,2.0,51,0.00,,,0.00,74,HR-IXPWINDi_r2_v1.2.,2013-11-25 14:17:00,
2013-11-25 09:22:00,28.5,12.7,30.57,SW,234,3.0,3.0,51,0.00,,,0.00,67,HR-IXPWINDi_r2_v1.2.,2013-11-25 14:22:00,
2013-11-25 09:28:00,28.6,12.3,30.57,SSW,193,1.0,5.0,50,0.00,,,0.00,63,HR-IXPWINDi_r2_v1.2.,2013-11-25 14:28:00,
2013-11-25 09:33:00,28.9,12.6,30.57,SSW,193,0.0,5.0,50,0.00,,,0.00,70,HR-IXPWINDi_r2_v1.2.,2013-11-25 14:33:00,
2013-11-25 09:38:00,29.2,13.8,30.57,SSW,193,0.0,3.0,52,0.00,,,0.00,72,HR-IXPWINDi_r2_v1.2.,2013-11-25 14:38:00,
2013-11-25 09:44:00,29.2,12.9,30.57,SSW,193,0.0,1.0,50,0.00,,,0.00,104,HR-IXPWINDi_r2_v1.2.,2013-11-25 14:44:00,
2013-11-25 09:49:00,29.7,11.0,30.58,West,265,1.0,3.0,45,0.00,,,0.00,90,HR-IXPWINDi_r2_v1.2.,2013-11-25 14:49:00,
2013-11-25 09:55:00,30.4,11.6,30.57,SE,143,2.0,4.0,45,0.00,,,0.00,118,HR-IXPWINDi_r2_v1.2.,2013-11-25 14:55:00,
2013-11-25 10:01:00,30.7,11.4,30.56,SE,142,0.0,4.0,44,0.00,,,0.00,120,HR-IXPWINDi_r2_v1.2.,2013-11-25 15:01:00,
2013-11-25 10:07:00,31.0,9.5,30.56,NNW,330,3.0,6.0,40,0.00,,,0.00,109,HR-IXPWINDi_r2_v1.2.,2013-11-25 15:07:00,
2013-11-25 10:13:00,31.0,10.1,30.56,NNE,25,0.0,6.0,41,0.00,,,0.00,97,HR-IXPWINDi_r2_v1.2.,2013-11-25 15:13:00,
2013-11-25 10:18:00,31.2,10.3,30.57,NNW,338,0.0,4.0,41,0.00,,,0.00,90,HR-IXPWINDi_r2_v1.2.,2013-11-25 15:18:00,
2013-11-25 10:23:00,31.2,9.2,30.56,North,351,0.0,4.0,39,0.00,,,0.00,97,HR-IXPWINDi_r2_v1.2.,2013-11-25 15:23:00,
2013-11-25 10:28:00,31.0,8.4,30.56,North,355,0.0,4.0,38,0.00,,,0.00,102,HR-IXPWINDi_r2_v1.2.,2013-11-25 15:28:00,
2013-11-25 10:34:00,31.0,8.4,30.55,North,355,0.0,4.0,38,0.00,,,0.00,118,HR-IXPWINDi_r2_v1.2.,2013-11-25 15:34:00,
2013-11-25 10:40:00,31.5,8.9,30.55,NE,37,0.0,2.0,38,0.00,,,0.00,149,HR-IXPWINDi_r2_v1.2.,2013-11-25 15:40:00,
2013-11-25 10:45:00,31.7,9.0,30.55,NE,37,0.0,2.0,38,0.00,,,0.00,181,HR-IXPWINDi_r2_v1.2.,2013-11-25 15:45:00,
2013-11-25 10:51:00,31.6,8.9,30.54,NE,38,0.0,3.0,38,0.00,,,0.00,195,HR-IXPWINDi_r2_v1.2.,2013-11-25 15:51:00,
2013-11-25 10:56:00,32.3,10.1,30.54,NE,40,0.0,3.0,39,0.00,,,0.00,176,HR-IXPWINDi_r2_v1.2.,2013-11-25 15:56:00,
2013-11-25 11:02:00,32.9,10.7,30.54,SSW,205,2.0,4.0,39,0.00,,,0.00,169,HR-IXPWINDi_r2_v1.2.,2013-11-25 16:02:00,
2013-11-25 11:07:00,32.3,9.0,30.54,South,176,5.0,7.0,37,0.00,,,0.00,181,HR-IXPWINDi_r2_v1.2.,2013-11-25 16:07:00,
2013-11-25 11:13:00,32.6,9.8,30.53,NNW,340,2.0,6.0,38,0.00,,,0.00,186,HR-IXPWINDi_r2_v1.2.,2013-11-25 16:13:00,
2013-11-25 11:19:00,33.0,10.2,30.54,South,184,1.0,4.0,38,0.00,,,0.00,149,HR-IXPWINDi_r2_v1.2.,2013-11-25 16:19:00,
2013-11-25 11:24:00,33.0,9.6,30.53,West,265,2.0,4.0,37,0.00,,,0.00,144,HR-IXPWINDi_r2_v1.2.,2013-11-25 16:24:00,
2013-11-25 11:29:00,33.2,9.8,30.52,West,267,1.0,3.0,37,0.00,,,0.00,141,HR-IXPWINDi_r2_v1.2.,2013-11-25 16:29:00,
2013-11-25 11:34:00,33.0,9.0,30.52,West,266,0.0,3.0,36,0.00,,,0.00,98,HR-IXPWINDi_r2_v1.2.,2013-11-25 16:34:00,
2013-11-25 11:39:00,32.6,8.6,30.51,WSW,237,0.0,4.0,36,0.00,,,0.00,98,HR-IXPWINDi_r2_v1.2.,2013-11-25 16:39:00,
2013-11-25 11:45:00,32.6,8.6,30.51,South,188,0.0,4.0,36,0.00,,,0.00,111,HR-IXPWINDi_r2_v1.2.,2013-11-25 16:45:00,
2013-11-25 11:50:00,32.8,9.4,30.51,SW,227,0.0,4.0,37,0.00,,,0.00,114,HR-IXPWINDi_r2_v1.2.,2013-11-25 16:50:00,
2013-11-25 11:56:00,32.9,10.1,30.51,SW,221,3.0,4.0,38,0.00,,,0.00,118,HR-IXPWINDi_r2_v1.2.,2013-11-25 16:56:00,
2013-11-25 12:01:00,33.0,9.6,30.50,SW,221,0.0,4.0,37,0.00,,,0.00,123,HR-IXPWINDi_r2_v1.2.,2013-11-25 17:01:00,
2013-11-25 12:06:00,33.5,10.1,30.50,SW,219,2.0,4.0,37,0.00,,,0.00,111,HR-IXPWINDi_r2_v1.2.,2013-11-25 17:06:00,
2013-11-25 12:11:00,33.3,9.3,30.49,SW,219,1.0,4.0,36,0.00,,,0.00,107,HR-IXPWINDi_r2_v1.2.,2013-11-25 17:11:00,
2013-11-25 12:17:00,33.2,9.2,30.49,SW,218,4.0,5.0,36,0.00,,,0.00,102,HR-IXPWINDi_r2_v1.2.,2013-11-25 17:17:00,
2013-11-25 12:22:00,33.4,10.0,30.49,West,278,0.0,5.0,37,0.00,,,0.00,97,HR-IXPWINDi_r2_v1.2.,2013-11-25 17:22:00,
2013-11-25 12:29:00,33.9,10.4,30.49,SSW,200,2.0,4.0,37,0.00,,,0.00,105,HR-IXPWINDi_r2_v1.2.,2013-11-25 17:29:00,
2013-11-25 12:35:00,34.1,10.0,30.48,SSW,200,0.0,4.0,36,0.00,,,0.00,123,HR-IXPWINDi_r2_v1.2.,2013-11-25 17:35:00,
2013-11-25 12:41:00,34.6,10.4,30.47,NNW,333,2.0,4.0,36,0.00,,,0.00,123,HR-IXPWINDi_r2_v1.2.,2013-11-25 17:41:00,
2013-11-25 12:46:00,34.8,11.2,30.47,SSW,208,2.0,5.0,37,0.00,,,0.00,144,HR-IXPWINDi_r2_v1.2.,2013-11-25 17:46:00,
2013-11-25 12:51:00,35.0,10.8,30.46,SSW,202,3.0,6.0,36,0.00,,,0.00,156,HR-IXPWINDi_r2_v1.2.,2013-11-25 17:51:00,
2013-11-25 12:57:00,35.7,11.4,30.46,South,188,0.0,6.0,36,0.00,,,0.00,165,HR-IXPWINDi_r2_v1.2.,2013-11-25 17:57:00,
2013-11-25 13:03:00,36.1,10.5,30.46,South,182,1.0,5.0,34,0.00,,,0.00,230,HR-IXPWINDi_r2_v1.2.,2013-11-25 18:03:00,
2013-11-25 13:08:00,36.6,10.2,30.46,South,182,1.0,5.0,33,0.00,,,0.00,216,HR-IXPWINDi_r2_v1.2.,2013-11-25 18:08:00,
2013-11-25 13:13:00,37.7,9.8,30.47,West,261,0.0,3.0,31,0.00,,,0.00,244,HR-IXPWINDi_r2_v1.2.,2013-11-25 18:13:00,
2013-11-25 13:20:00,39.2,8.9,30.47,WSW,249,0.0,4.0,28,0.00,,,0.00,276,HR-IXPWINDi_r2_v1.2.,2013-11-25 18:20:00,
2013-11-25 13:26:00,39.4,8.2,30.46,SW,236,2.0,3.0,27,0.00,,,0.00,287,HR-IXPWINDi_r2_v1.2.,2013-11-25 18:26:00,
2013-11-25 13:32:00,39.7,5.0,30.46,North,5,3.0,5.0,23,0.00,,,0.00,272,HR-IXPWINDi_r2_v1.2.,2013-11-25 18:32:00,
2013-11-25 13:37:00,39.6,2.9,30.46,North,9,0.0,5.0,21,0.00,,,0.00,221,HR-IXPWINDi_r2_v1.2.,2013-11-25 18:37:00,
2013-11-25 13:42:00,40.0,3.3,30.45,North,9,2.0,5.0,21,0.00,,,0.00,185,HR-IXPWINDi_r2_v1.2.,2013-11-25 18:42:00,
2013-11-25 13:49:00,40.4,3.6,30.45,North,9,0.0,3.0,21,0.00,,,0.00,276,HR-IXPWINDi_r2_v1.2.,2013-11-25 18:49:00,
2013-11-25 13:55:00,40.3,3.5,30.46,NNW,342,0.0,4.0,21,0.00,,,0.00,216,HR-IXPWINDi_r2_v1.2.,2013-11-25 18:55:00,
2013-11-25 14:01:00,40.3,3.5,30.45,NW,319,0.0,4.0,21,0.00,,,0.00,264,HR-IXPWINDi_r2_v1.2.,2013-11-25 19:01:00,
2013-11-25 14:06:00,41.2,4.3,30.44,NW,310,1.0,3.0,21,0.00,,,0.00,214,HR-IXPWINDi_r2_v1.2.,2013-11-25 19:06:00,
2013-11-25 14:11:00,40.2,2.4,30.44,SSW,210,2.0,7.0,20,0.00,,,0.00,174,HR-IXPWINDi_r2_v1.2.,2013-11-25 19:11:00,
2013-11-25 14:17:00,39.8,3.1,30.44,SSW,211,0.0,7.0,21,0.00,,,0.00,153,HR-IXPWINDi_r2_v1.2.,2013-11-25 19:17:00,
2013-11-25 14:24:00,40.5,3.7,30.44,NNW,329,0.0,3.0,21,0.00,,,0.00,135,HR-IXPWINDi_r2_v1.2.,2013-11-25 19:24:00,
2013-11-25 14:29:00,40.7,3.9,30.44,North,355,1.0,3.0,21,0.00,,,0.00,105,HR-IXPWINDi_r2_v1.2.,2013-11-25 19:29:00,
2013-11-25 14:34:00,40.9,5.0,30.44,North,355,0.0,3.0,22,0.00,,,0.00,90,HR-IXPWINDi_r2_v1.2.,2013-11-25 19:34:00,
2013-11-25 14:39:00,40.8,3.9,30.44,North,355,3.0,4.0,21,0.00,,,0.00,116,HR-IXPWINDi_r2_v1.2.,2013-11-25 19:39:00,
2013-11-25 14:45:00,40.6,4.8,30.43,NNW,332,3.0,4.0,22,0.00,,,0.00,123,HR-IXPWINDi_r2_v1.2.,2013-11-25 19:45:00,
2013-11-25 14:50:00,40.7,5.8,30.44,NNW,332,0.0,4.0,23,0.00,,,0.00,114,HR-IXPWINDi_r2_v1.2.,2013-11-25 19:50:00,
2013-11-25 14:56:00,41.3,6.3,30.43,NNW,332,2.0,4.0,23,0.00,,,0.00,176,HR-IXPWINDi_r2_v1.2.,2013-11-25 19:56:00,
2013-11-25 15:01:00,41.7,7.6,30.42,North,355,0.0,4.0,24,0.00,,,0.00,155,HR-IXPWINDi_r2_v1.2.,2013-11-25 20:01:00,
2013-11-25 15:06:00,41.4,6.4,30.43,SE,126,6.0,6.0,23,0.00,,,0.00,111,HR-IXPWINDi_r2_v1.2.,2013-11-25 20:06:00,
2013-11-25 15:11:00,41.1,5.2,30.42,SE,142,0.0,11.0,22,0.00,,,0.00,84,HR-IXPWINDi_r2_v1.2.,2013-11-25 20:11:00,
2013-11-25 15:16:00,41.0,6.1,30.42,SE,126,1.0,11.0,23,0.00,,,0.00,70,HR-IXPWINDi_r2_v1.2.,2013-11-25 20:16:00,
2013-11-25 15:21:00,41.0,5.1,30.42,South,182,4.0,7.0,22,0.00,,,0.00,69,HR-IXPWINDi_r2_v1.2.,2013-11-25 20:21:00,
2013-11-25 15:27:00,40.8,3.9,30.43,SSE,151,5.0,6.0,21,0.00,,,0.00,67,HR-IXPWINDi_r2_v1.2.,2013-11-25 20:27:00,
2013-11-25 15:32:00,40.9,4.0,30.43,SSE,151,0.0,5.0,21,0.00,,,0.00,65,HR-IXPWINDi_r2_v1.2.,2013-11-25 20:32:00,
2013-11-25 15:38:00,41.0,5.1,30.43,SSE,151,2.0,4.0,22,0.00,,,0.00,62,HR-IXPWINDi_r2_v1.2.,2013-11-25 20:38:00,
2013-11-25 15:43:00,41.3,7.3,30.44,SSE,151,0.0,4.0,24,0.00,,,0.00,51,HR-IXPWINDi_r2_v1.2.,2013-11-25 20:43:00,
2013-11-25 15:48:00,41.3,4.4,30.44,SSE,151,0.0,2.0,21,0.00,,,0.00,67,HR-IXPWINDi_r2_v1.2.,2013-11-25 20:48:00,
2013-11-25 15:53:00,41.5,4.5,30.44,SSE,151,0.0,1.0,21,0.00,,,0.00,72,HR-IXPWINDi_r2_v1.2.,2013-11-25 20:53:00,
2013-11-25 15:58:00,41.9,5.9,30.44,SSE,151,0.0,1.0,22,0.00,,,0.00,70,HR-IXPWINDi_r2_v1.2.,2013-11-25 20:58:00,
2013-11-25 16:03:00,41.9,3.8,30.44,SSE,151,0.0,1.0,20,0.00,,,0.00,60,HR-IXPWINDi_r2_v1.2.,2013-11-25 21:03:00,
2013-11-25 16:09:00,41.5,6.5,30.43,SSE,151,2.0,4.0,23,0.00,,,0.00,54,HR-IXPWINDi_r2_v1.2.,2013-11-25 21:09:00,
2013-11-25 16:14:00,41.4,4.4,30.43,ESE,115,0.0,7.0,21,0.00,,,0.00,39,HR-IXPWINDi_r2_v1.2.,2013-11-25 21:14:00,
2013-11-25 16:19:00,41.3,5.4,30.43,ESE,112,0.0,7.0,22,0.00,,,0.00,28,HR-IXPWINDi_r2_v1.2.,2013-11-25 21:19:00,
2013-11-25 16:24:00,41.2,4.3,30.43,SW,234,0.0,6.0,21,0.00,,,0.00,25,HR-IXPWINDi_r2_v1.2.,2013-11-25 21:24:00,
2013-11-25 16:29:00,41.1,6.2,30.43,SE,135,4.0,4.0,23,0.00,,,0.00,26,HR-IXPWINDi_r2_v1.2.,2013-11-25 21:29:00,
2013-11-25 16:34:00,41.0,6.1,30.43,NE,43,2.0,4.0,23,0.00,,,0.00,21,HR-IXPWINDi_r2_v1.2.,2013-11-25 21:34:00,
2013-11-25 16:40:00,41.0,7.9,30.43,ESE,103,1.0,4.0,25,0.00,,,0.00,18,HR-IXPWINDi_r2_v1.2.,2013-11-25 21:40:00,
2013-11-25 16:45:00,40.9,9.5,30.43,ESE,103,0.0,4.0,27,0.00,,,0.00,12,HR-IXPWINDi_r2_v1.2.,2013-11-25 21:45:00,
2013-11-25 16:50:00,40.9,10.3,30.42,ESE,103,0.0,2.0,28,0.00,,,0.00,11,HR-IXPWINDi_r2_v1.2.,2013-11-25 21:50:00,
2013-11-25 16:55:00,40.7,12.4,30.42,ESE,103,0.0,0.0,31,0.00,,,0.00,7,HR-IXPWINDi_r2_v1.2.,2013-11-25 21:55:00,
2013-11-25 17:00:00,40.3,12.1,30.42,ESE,103,0.0,0.0,31,0.00,,,0.00,5,HR-IXPWINDi_r2_v1.2.,2013-11-25 22:00:00,
2013-11-25 17:05:00,40.1,13.3,30.42,ESE,103,0.0,0.0,33,0.00,,,0.00,0,HR-IXPWINDi_r2_v1.2.,2013-11-25 22:05:00,
2013-11-25 17:11:00,39.7,13.0,30.42,ESE,103,0.0,0.0,33,0.00,,,0.00,0,HR-IXPWINDi_r2_v1.2.,2013-11-25 22:11:00,
2013-11-25 17:16:00,39.6,14.9,30.42,ESE,103,0.0,0.0,36,0.00,,,0.00,0,HR-IXPWINDi_r2_v1.2.,2013-11-25 22:16:00,
2013-11-25 17:21:00,39.5,13.5,30.43,ESE,103,0.0,1.0,34,0.00,,,0.00,0,HR-IXPWINDi_r2_v1.2.,2013-11-25 22:21:00,
2013-11-25 17:26:00,39.3,13.3,30.43,ESE,103,0.0,1.0,34,0.00,,,0.00,0,HR-IXPWINDi_r2_v1.2.,2013-11-25 22:26:00,
2013-11-25 17:31:00,39.1,14.4,30.43,NNW,339,4.0,5.0,36,0.00,,,0.00,0,HR-IXPWINDi_r2_v1.2.,2013-11-25 22:31:00,
2013-11-25 17:36:00,39.0,11.7,30.43,NNW,344,2.0,5.0,32,0.00,,,0.00,0,HR-IXPWINDi_r2_v1.2.,2013-11-25 22:36:00,
2013-11-25 17:42:00,38.8,11.5,30.43,NNW,344,0.0,6.0,32,0.00,,,0.00,0,HR-IXPWINDi_r2_v1.2.,2013-11-25 22:42:00,
2013-11-25 17:47:00,38.7,11.4,30.42,NE,38,3.0,6.0,32,0.00,,,0.00,0,HR-IXPWINDi_r2_v1.2.,2013-11-25 22:47:00,
2013-11-25 17:52:00,38.4,10.4,30.42,ENE,59,2.0,5.0,31,0.00,,,0.00,0,HR-IXPWINDi_r2_v1.2.,2013-11-25 22:52:00,
2013-11-25 17:57:00,38.2,11.0,30.42,NE,43,2.0,5.0,32,0.00,,,0.00,0,HR-IXPWINDi_r2_v1.2.,2013-11-25 22:57:00,
2013-11-25 18:02:00,38.0,11.5,30.42,ENE,57,4.0,5.0,33,0.00,,,0.00,0,HR-IXPWINDi_r2_v1.2.,2013-11-25 23:02:00,
2013-11-25 18:07:00,37.9,11.4,30.42,East,84,0.0,5.0,33,0.00,,,0.00,0,HR-IXPWINDi_r2_v1.2.,2013-11-25 23:07:00,
2013-11-25 18:12:00,37.8,11.3,30.43,North,5,1.0,5.0,33,0.00,,,0.00,0,HR-IXPWINDi_r2_v1.2.,2013-11-25 23:12:00,
2013-11-25 18:17:00,37.7,11.2,30.43,North,5,0.0,3.0,33,0.00,,,0.00,0,HR-IXPWINDi_r2_v1.2.,2013-11-25 23:17:00,
2013-11-25 18:22:00,37.6,11.1,30.44,North,350,0.0,3.0,33,0.00,,,0.00,0,HR-IXPWINDi_r2_v1.2.,2013-11-25 23:22:00,
2013-11-25 18:28:00,37.6,14.9,30.43,North,350,0.0,3.0,39,0.00,,,0.00,0,HR-IXPWINDi_r2_v1.2.,2013-11-25 23:28:00,
2013-11-25 18:33:00,37.2,14.0,30.43,North,350,0.0,1.0,38,0.00,,,0.00,0,HR-IXPWINDi_r2_v1.2.,2013-11-25 23:33:00,
2013-11-25 18:38:00,37.0,15.5,30.43,North,350,0.0,0.0,41,0.00,,,0.00,0,HR-IXPWINDi_r2_v1.2.,2013-11-25 23:38:00,
2013-11-25 18:43:00,36.9,15.4,30.42,North,350,0.0,0.0,41,0.00,,,0.00,0,HR-IXPWINDi_r2_v1.2.,2013-11-25 23:43:00,
2013-11-25 18:48:00,37.0,14.4,30.42,North,350,2.0,2.0,39,0.00,,,0.00,0,HR-IXPWINDi_r2_v1.2.,2013-11-25 23:48:00,
2013-11-25 18:54:00,37.0,13.2,30.43,NNE,19,0.0,4.0,37,0.00,,,0.00,0,HR-IXPWINDi_r2_v1.2.,2013-11-25 23:54:00,
2013-11-25 18:59:00,37.0,16.1,30.43,NNE,19,0.0,4.0,42,0.00,,,0.00,0,HR-IXPWINDi_r2_v1.2.,2013-11-25 23:59:00,
2013-11-25 19:04:00,36.7,16.9,30.43,NNE,19,0.0,2.0,44,0.00,,,0.00,0,HR-IXPWINDi_r2_v1.2.,2013-11-26 00:04:00,
2013-11-25 19:09:00,36.7,14.1,30.43,NNE,19,0.0,1.0,39,0.00,,,0.00,0,HR-IXPWINDi_r2_v1.2.,2013-11-26 00:09:00,
2013-11-25 19:15:00,36.6,17.3,30.43,NNE,19,0.0,2.0,45,0.00,,,0.00,0,HR-IXPWINDi_r2_v1.2.,2013-11-26 00:15:00,
2013-11-25 19:20:00,36.4,15.5,30.43,NNE,19,0.0,2.0,42,0.00,,,0.00,0,HR-IXPWINDi_r2_v1.2.,2013-11-26 00:20:00,
2013-11-25 19:25:00,36.5,17.2,30.43,NNE,19,1.0,1.0,45,0.00,,,0.00,0,HR-IXPWINDi_r2_v1.2.,2013-11-26 00:25:00,
2013-11-25 19:30:00,36.5,18.2,30.43,ENE,74,3.0,3.0,47,0.00,,,0.00,0,HR-IXPWINDi_r2_v1.2.,2013-11-26 00:30:00,
2013-11-25 19:35:00,36.4,17.6,30.44,ENE,74,0.0,3.0,46,0.00,,,0.00,0,HR-IXPWINDi_r2_v1.2.,2013-11-26 00:35:00,
2013-11-25 19:40:00,36.4,17.1,30.44,ENE,74,0.0,3.0,45,0.00,,,0.00,0,HR-IXPWINDi_r2_v1.2.,2013-11-26 00:40:00,
2013-11-25 19:45:00,36.5,18.2,30.44,ENE,75,1.0,2.0,47,0.00,,,0.00,0,HR-IXPWINDi_r2_v1.2.,2013-11-26 00:45:00,
2013-11-25 19:51:00,36.3,17.0,30.43,ENE,75,0.0,2.0,45,0.00,,,0.00,0,HR-IXPWINDi_r2_v1.2.,2013-11-26 00:51:00,
2013-11-25 19:56:00,36.4,18.6,30.43,ESE,121,0.0,5.0,48,0.00,,,0.00,0,HR-IXPWINDi_r2_v1.2.,2013-11-26 00:56:00,
2013-11-25 20:01:00,36.6,17.3,30.43,ESE,121,1.0,5.0,45,0.00,,,0.00,0,HR-IXPWINDi_r2_v1.2.,2013-11-26 01:01:00,
2013-11-25 20:06:00,36.6,16.2,30.42,NW,321,3.0,5.0,43,0.00,,,0.00,0,HR-IXPWINDi_r2_v1.2.,2013-11-26 01:06:00,
2013-11-25 20:11:00,36.9,17.0,30.42,SSE,165,5.0,7.0,44,0.00,,,0.00,0,HR-IXPWINDi_r2_v1.2.,2013-11-26 01:11:00,
2013-11-25 20:17:00,37.8,20.8,30.41,ENE,61,1.0,7.0,50,0.00,,,0.00,0,HR-IXPWINDi_r2_v1.2.,2013-11-26 01:17:00,
2013-11-25 20:22:00,38.2,22.1,30.41,NNW,348,4.0,6.0,52,0.00,,,0.00,0,HR-IXPWINDi_r2_v1.2.,2013-11-26 01:22:00,
2013-11-25 20:27:00,38.4,23.6,30.41,North,11,3.0,6.0,55,0.00,,,0.00,0,HR-IXPWINDi_r2_v1.2.,2013-11-26 01:27:00,
2013-11-25 20:32:00,38.5,24.6,30.41,North,360,5.0,7.0,57,0.00,,,0.00,0,HR-IXPWINDi_r2_v1.2.,2013-11-26 01:32:00,
2013-11-25 20:37:00,38.6,25.5,30.41,East,90,0.0,7.0,59,0.00,,,0.00,0,HR-IXPWINDi_r2_v1.2.,2013-11-26 01:37:00,
2013-11-25 20:43:00,38.7,26.0,30.41,ESE,121,4.0,8.0,60,0.00,,,0.00,0,HR-IXPWINDi_r2_v1.2.,2013-11-26 01:43:00,
2013-11-25 20:48:00,38.9,25.8,30.41,North,360,1.0,8.0,59,0.00,,,0.00,0,HR-IXPWINDi_r2_v1.2.,2013-11-26 01:48:00,
2013-11-25 20:53:00,38.8,25.3,30.41,NNW,342,4.0,5.0,58,0.00,,,0.00,0,HR-IXPWINDi_r2_v1.2.,2013-11-26 01:53:00,
2013-11-25 20:58:00,38.7,25.6,30.41,North,350,7.0,8.0,59,0.00,,,0.00,0,HR-IXPWINDi_r2_v1.2.,2013-11-26 01:58:00,
2013-11-25 21:03:00,38.6,25.9,30.41,North,350,4.0,8.0,60,0.00,,,0.00,0,HR-IXPWINDi_r2_v1.2.,2013-11-26 02:03:00,
2013-11-25 21:08:00,38.4,25.3,30.41,NE,51,3.0,8.0,59,0.00,,,0.00,0,HR-IXPWINDi_r2_v1.2.,2013-11-26 02:08:00,
2013-11-25 21:13:00,38.2,24.3,30.41,NNE,22,2.0,5.0,57,0.00,,,0.00,0,HR-IXPWINDi_r2_v1.2.,2013-11-26 02:13:00,
2013-11-25 21:18:00,38.0,24.5,30.41,North,5,0.0,4.0,58,0.00,,,0.00,0,HR-IXPWINDi_r2_v1.2.,2013-11-26 02:18:00,
2013-11-25 21:24:00,38.0,24.9,30.41,North,5,0.0,4.0,59,0.00,,,0.00,0,HR-IXPWINDi_r2_v1.2.,2013-11-26 02:24:00,
2013-11-25 21:29:00,37.9,25.2,30.41,NE,38,1.0,3.0,60,0.00,,,0.00,0,HR-IXPWINDi_r2_v1.2.,2013-11-26 02:29:00,
2013-11-25 21:34:00,37.9,25.6,30.40,NE,38,0.0,3.0,61,0.00,,,0.00,0,HR-IXPWINDi_r2_v1.2.,2013-11-26 02:34:00,
2013-11-25 21:39:00,37.7,25.8,30.41,NE,38,0.0,2.0,62,0.00,,,0.00,0,HR-IXPWINDi_r2_v1.2.,2013-11-26 02:39:00,
2013-11-25 21:44:00,37.4,25.2,30.41,NE,38,3.0,3.0,61,0.00,,,0.00,0,HR-IXPWINDi_r2_v1.2.,2013-11-26 02:44:00,
2013-11-25 21:49:00,37.0,25.6,30.41,SSW,192,0.0,4.0,63,0.00,,,0.00,0,HR-IXPWINDi_r2_v1.2.,2013-11-26 02:49:00,
2013-11-25 21:55:00,36.8,26.9,30.40,SSW,192,0.0,4.0,67,0.00,,,0.00,0,HR-IXPWINDi_r2_v1.2.,2013-11-26 02:55:00,
2013-11-25 22:00:00,36.5,28.0,30.40,SSW,192,0.0,1.0,71,0.00,,,0.00,0,HR-IXPWINDi_r2_v1.2.,2013-11-26 03:00:00,
2013-11-25 22:05:00,35.9,28.7,30.40,East,84,1.0,3.0,75,0.00,,,0.00,0,HR-IXPWINDi_r2_v1.2.,2013-11-26 03:05:00,
2013-11-25 22:10:00,35.6,28.8,30.39,NE,34,2.0,3.0,76,0.00,,,0.00,0,HR-IXPWINDi_r2_v1.2.,2013-11-26 03:10:00,
2013-11-25 22:15:00,35.2,29.0,30.39,NE,35,0.0,3.0,78,0.00,,,0.00,0,HR-IXPWINDi_r2_v1.2.,2013-11-26 03:15:00,
2013-11-25 22:20:00,34.9,29.3,30.38,NNE,12,3.0,7.0,80,0.00,,,0.00,0,HR-IXPWINDi_r2_v1.2.,2013-11-26 03:20:00,
2013-11-25 22:26:00,34.9,30.2,30.38,North,5,3.0,7.0,83,0.00,,,0.00,0,HR-IXPWINDi_r2_v1.2.,2013-11-26 03:26:00,
2013-11-25 22:31:00,34.8,30.4,30.37,SE,129,0.0,5.0,84,0.00,,,0.00,0,HR-IXPWINDi_r2_v1.2.,2013-11-26 03:31:00,
2013-11-25 22:36:00,34.4,30.0,30.37,North,355,2.0,5.0,84,0.00,,,0.00,0,HR-IXPWINDi_r2_v1.2.,2013-11-26 03:36:00,
2013-11-25 22:41:00,34.7,30.9,30.36,NNE,27,3.0,10.0,86,0.00,,,0.00,0,HR-IXPWINDi_r2_v1.2.,2013-11-26 03:41:00,
2013-11-25 22:46:00,35.1,31.3,30.36,East,87,8.0,10.0,86,0.00,,,0.00,0,HR-IXPWINDi_r2_v1.2.,2013-11-26 03:46:00,
2013-11-25 22:51:00,35.5,31.7,30.35,ESE,105,2.0,14.0,86,0.00,,,0.00,0,HR-IXPWINDi_r2_v1.2.,2013-11-26 03:51:00,
2013-11-25 22:57:00,35.9,31.8,30.35,SE,140,6.0,14.0,85,0.00,,,0.00,0,HR-IXPWINDi_r2_v1.2.,2013-11-26 03:57:00,
2013-11-25 23:02:00,36.2,31.8,30.34,NNE,26,5.0,9.0,84,0.00,,,0.00,0,HR-IXPWINDi_r2_v1.2.,2013-11-26 04:02:00,
2013-11-25 23:07:00,36.3,32.2,30.33,North,5,1.0,8.0,85,0.00,,,0.00,0,HR-IXPWINDi_r2_v1.2.,2013-11-26 04:07:00,
2013-11-25 23:12:00,35.8,31.4,30.33,SSE,148,5.0,6.0,84,0.00,,,0.00,0,HR-IXPWINDi_r2_v1.2.,2013-11-26 04:12:00,
2013-11-25 23:18:00,35.6,31.5,30.34,SW,230,0.0,6.0,85,0.00,,,0.00,0,HR-IXPWINDi_r2_v1.2.,2013-11-26 04:18:00,
2013-11-25 23:23:00,34.9,31.4,30.33,SSW,204,2.0,6.0,87,0.00,,,0.00,0,HR-IXPWINDi_r2_v1.2.,2013-11-26 04:23:00,
2013-11-25 23:28:00,34.8,31.6,30.34,SSW,204,0.0,5.0,88,0.00,,,0.00,0,HR-IXPWINDi_r2_v1.2.,2013-11-26 04:28:00,
2013-11-25 23:33:00,34.9,31.7,30.34,SSW,198,4.0,5.0,88,0.00,,,0.00,0,HR-IXPWINDi_r2_v1.2.,2013-11-26 04:33:00,
2013-11-25 23:38:00,35.0,31.8,30.34,SSW,199,0.0,5.0,88,0.00,,,0.00,0,HR-IXPWINDi_r2_v1.2.,2013-11-26 04:38:00,
2013-11-25 23:43:00,34.7,31.5,30.34,SW,229,1.0,7.0,88,0.00,,,0.00,0,HR-IXPWINDi_r2_v1.2.,2013-11-26 04:43:00,
2013-11-25 23:48:00,34.6,31.1,30.34,SW,214,0.0,7.0,87,0.00,,,0.00,0,HR-IXPWINDi_r2_v1.2.,2013-11-26 04:48:00,
2013-11-25 23:54:00,34.5,30.7,30.34,SW,215,0.0,4.0,86,0.00,,,0.00,0,HR-IXPWINDi_r2_v1.2.,2013-11-26 04:54:00,
2013-11-25 23:59:00,34.4,30.3,30.34,NW,309,0.0,6.0,85,0.00,,,0.00,0,HR-IXPWINDi_r2_v1.2.,2013-11-26 04:59:00,